Terminal Aerodrome Forecast
Issued by NWS

Home | Current Version | Previous Version | Text Only | Print | Product List | Glossary On
Versions: 1 2 3 4 5 6 7 8 9 10 11 12 13 14 15 16 17 18 19 20 21 22
000
FTUS43 KICT 210529
TAFRSL
TAF
KRSL 210529Z 2106/2206 19009KT P6SM SCT015 BKN200
      TEMPO 2108/2110 5SM BR BKN012
     FM211000 18008KT 3SM BR OVC007
     FM211400 19013KT 5SM BR BKN008
     FM211700 19015G20KT P6SM BKN012=

USA.gov is the U.S. government's official web portal to all federal, state and local government web resources and services.